sensor_id;sensor_type;location;lat;lon;timestamp;P1;durP1;ratioP1;P2;durP2;ratioP2
18159;SDS011;9205;52.032;4.314;2023-07-29T00:01:59;2.57;;;1.40;;
18159;SDS011;9205;52.032;4.314;2023-07-29T00:04:27;2.83;;;1.10;;
18159;SDS011;9205;52.032;4.314;2023-07-29T00:06:54;1.60;;;1.27;;
18159;SDS011;9205;52.032;4.314;2023-07-29T00:09:21;1.73;;;1.10;;
18159;SDS011;9205;52.032;4.314;2023-07-29T00:11:48;2.37;;;1.30;;
18159;SDS011;9205;52.032;4.314;2023-07-29T00:14:17;2.60;;;1.27;;
18159;SDS011;9205;52.032;4.314;2023-07-29T00:16:44;1.40;;;1.03;;
18159;SDS011;9205;52.032;4.314;2023-07-29T00:19:11;1.80;;;1.20;;
18159;SDS011;9205;52.032;4.314;2023-07-29T00:21:38;6.00;;;1.17;;
18159;SDS011;9205;52.032;4.314;2023-07-29T00:24:06;3.93;;;1.50;;
18159;SDS011;9205;52.032;4.314;2023-07-29T00:26:33;4.10;;;1.27;;
18159;SDS011;9205;52.032;4.314;2023-07-29T00:29:00;2.53;;;1.20;;
18159;SDS011;9205;52.032;4.314;2023-07-29T00:31:29;6.07;;;1.40;;
18159;SDS011;9205;52.032;4.314;2023-07-29T00:33:56;7.10;;;1.50;;
18159;SDS011;9205;52.032;4.314;2023-07-29T00:36:24;4.40;;;1.40;;
18159;SDS011;9205;52.032;4.314;2023-07-29T00:38:52;2.03;;;1.23;;
18159;SDS011;9205;52.032;4.314;2023-07-29T00:41:22;2.57;;;1.20;;
18159;SDS011;9205;52.032;4.314;2023-07-29T00:43:52;4.60;;;1.27;;
18159;SDS011;9205;52.032;4.314;2023-07-29T00:46:20;4.63;;;1.40;;
18159;SDS011;9205;52.032;4.314;2023-07-29T00:48:49;2.90;;;1.40;;
18159;SDS011;9205;52.032;4.314;2023-07-29T00:51:17;5.03;;;1.30;;
18159;SDS011;9205;52.032;4.314;2023-07-29T00:53:44;2.70;;;1.33;;
18159;SDS011;9205;52.032;4.314;2023-07-29T00:56:11;4.57;;;1.47;;
18159;SDS011;9205;52.032;4.314;2023-07-29T00:58:39;2.47;;;1.17;;
18159;SDS011;9205;52.032;4.314;2023-07-29T01:01:07;1.50;;;1.23;;
18159;SDS011;9205;52.032;4.314;2023-07-29T01:03:35;5.90;;;1.73;;
18159;SDS011;9205;52.032;4.314;2023-07-29T01:06:08;1.87;;;1.23;;
18159;SDS011;9205;52.032;4.314;2023-07-29T01:08:46;5.67;;;1.60;;
18159;SDS011;9205;52.032;4.314;2023-07-29T01:11:26;2.67;;;1.27;;
18159;SDS011;9205;52.032;4.314;2023-07-29T01:14:11;4.13;;;1.43;;
18159;SDS011;9205;52.032;4.314;2023-07-29T01:16:52;3.67;;;1.57;;
18159;SDS011;9205;52.032;4.314;2023-07-29T01:19:36;6.70;;;1.43;;
18159;SDS011;9205;52.032;4.314;2023-07-29T01:22:27;2.43;;;1.30;;
18159;SDS011;9205;52.032;4.314;2023-07-29T01:24:58;3.17;;;1.50;;
18159;SDS011;9205;52.032;4.314;2023-07-29T01:27:25;3.33;;;1.40;;
18159;SDS011;9205;52.032;4.314;2023-07-29T01:29:53;4.10;;;1.67;;
18159;SDS011;9205;52.032;4.314;2023-07-29T01:32:23;2.33;;;1.20;;
18159;SDS011;9205;52.032;4.314;2023-07-29T01:35:00;2.07;;;1.30;;
18159;SDS011;9205;52.032;4.314;2023-07-29T01:37:33;2.60;;;1.30;;
18159;SDS011;9205;52.032;4.314;2023-07-29T01:40:06;4.67;;;1.63;;
18159;SDS011;9205;52.032;4.314;2023-07-29T01:42:37;3.63;;;1.50;;
18159;SDS011;9205;52.032;4.314;2023-07-29T01:45:05;4.90;;;1.40;;
18159;SDS011;9205;52.032;4.314;2023-07-29T01:47:33;3.83;;;1.40;;
18159;SDS011;9205;52.032;4.314;2023-07-29T01:50:06;2.20;;;1.30;;
18159;SDS011;9205;52.032;4.314;2023-07-29T01:52:34;5.13;;;1.50;;
18159;SDS011;9205;52.032;4.314;2023-07-29T01:55:02;3.17;;;1.20;;
18159;SDS011;9205;52.032;4.314;2023-07-29T01:57:31;3.20;;;1.50;;
18159;SDS011;9205;52.032;4.314;2023-07-29T01:59:58;2.53;;;1.40;;
18159;SDS011;9205;52.032;4.314;2023-07-29T02:02:25;2.67;;;1.33;;
18159;SDS011;9205;52.032;4.314;2023-07-29T02:04:53;6.10;;;1.30;;
18159;SDS011;9205;52.032;4.314;2023-07-29T02:07:21;3.20;;;1.73;;
18159;SDS011;9205;52.032;4.314;2023-07-29T02:09:48;7.97;;;1.60;;
18159;SDS011;9205;52.032;4.314;2023-07-29T02:12:15;2.27;;;1.37;;
18159;SDS011;9205;52.032;4.314;2023-07-29T02:14:44;4.93;;;1.73;;
18159;SDS011;9205;52.032;4.314;2023-07-29T02:17:11;3.93;;;1.53;;
18159;SDS011;9205;52.032;4.314;2023-07-29T02:19:38;2.93;;;1.57;;
18159;SDS011;9205;52.032;4.314;2023-07-29T02:22:05;3.73;;;1.60;;
18159;SDS011;9205;52.032;4.314;2023-07-29T02:24:32;3.53;;;1.67;;
18159;SDS011;9205;52.032;4.314;2023-07-29T02:27:00;4.93;;;1.40;;
18159;SDS011;9205;52.032;4.314;2023-07-29T02:29:27;4.17;;;1.67;;
18159;SDS011;9205;52.032;4.314;2023-07-29T02:31:57;4.63;;;1.67;;
18159;SDS011;9205;52.032;4.314;2023-07-29T02:34:24;4.23;;;1.80;;
18159;SDS011;9205;52.032;4.314;2023-07-29T02:36:52;7.07;;;2.10;;
18159;SDS011;9205;52.032;4.314;2023-07-29T02:39:19;3.50;;;1.60;;
18159;SDS011;9205;52.032;4.314;2023-07-29T02:41:47;2.50;;;1.50;;
18159;SDS011;9205;52.032;4.314;2023-07-29T02:44:14;5.23;;;2.03;;
18159;SDS011;9205;52.032;4.314;2023-07-29T02:46:42;5.43;;;1.63;;
18159;SDS011;9205;52.032;4.314;2023-07-29T02:49:10;2.47;;;1.77;;
18159;SDS011;9205;52.032;4.314;2023-07-29T02:51:37;3.53;;;1.47;;
18159;SDS011;9205;52.032;4.314;2023-07-29T02:54:07;5.40;;;1.70;;
18159;SDS011;9205;52.032;4.314;2023-07-29T02:56:35;5.17;;;1.70;;
18159;SDS011;9205;52.032;4.314;2023-07-29T02:59:02;6.03;;;1.60;;
18159;SDS011;9205;52.032;4.314;2023-07-29T03:01:30;7.47;;;1.90;;
18159;SDS011;9205;52.032;4.314;2023-07-29T03:03:57;3.13;;;1.43;;
18159;SDS011;9205;52.032;4.314;2023-07-29T03:06:26;2.47;;;1.37;;
18159;SDS011;9205;52.032;4.314;2023-07-29T03:08:53;3.87;;;1.63;;
18159;SDS011;9205;52.032;4.314;2023-07-29T03:11:21;5.07;;;1.60;;
18159;SDS011;9205;52.032;4.314;2023-07-29T03:13:48;4.07;;;1.97;;
18159;SDS011;9205;52.032;4.314;2023-07-29T03:16:16;3.80;;;1.60;;
18159;SDS011;9205;52.032;4.314;2023-07-29T03:18:52;4.43;;;1.60;;
18159;SDS011;9205;52.032;4.314;2023-07-29T03:21:19;4.23;;;1.33;;
18159;SDS011;9205;52.032;4.314;2023-07-29T03:23:47;5.00;;;1.70;;
18159;SDS011;9205;52.032;4.314;2023-07-29T03:26:15;7.47;;;2.00;;
18159;SDS011;9205;52.032;4.314;2023-07-29T03:28:42;4.77;;;1.70;;
18159;SDS011;9205;52.032;4.314;2023-07-29T03:31:10;2.93;;;1.63;;
18159;SDS011;9205;52.032;4.314;2023-07-29T03:33:38;4.03;;;1.70;;
18159;SDS011;9205;52.032;4.314;2023-07-29T03:36:08;4.47;;;1.70;;
18159;SDS011;9205;52.032;4.314;2023-07-29T03:38:35;5.80;;;1.87;;
18159;SDS011;9205;52.032;4.314;2023-07-29T03:41:07;2.83;;;1.60;;
18159;SDS011;9205;52.032;4.314;2023-07-29T03:43:34;5.20;;;2.13;;
18159;SDS011;9205;52.032;4.314;2023-07-29T03:46:02;7.50;;;2.13;;
18159;SDS011;9205;52.032;4.314;2023-07-29T03:48:30;4.00;;;1.93;;
18159;SDS011;9205;52.032;4.314;2023-07-29T03:50:58;4.87;;;2.20;;
18159;SDS011;9205;52.032;4.314;2023-07-29T03:53:25;4.97;;;1.83;;
18159;SDS011;9205;52.032;4.314;2023-07-29T03:55:53;7.00;;;2.13;;
18159;SDS011;9205;52.032;4.314;2023-07-29T03:58:21;7.43;;;2.53;;
18159;SDS011;9205;52.032;4.314;2023-07-29T04:00:49;9.57;;;2.10;;
18159;SDS011;9205;52.032;4.314;2023-07-29T04:03:16;3.90;;;1.80;;
18159;SDS011;9205;52.032;4.314;2023-07-29T04:05:44;3.63;;;1.60;;
18159;SDS011;9205;52.032;4.314;2023-07-29T04:08:11;6.00;;;1.87;;
18159;SDS011;9205;52.032;4.314;2023-07-29T04:10:39;4.37;;;1.90;;
18159;SDS011;9205;52.032;4.314;2023-07-29T04:13:06;3.77;;;1.70;;
18159;SDS011;9205;52.032;4.314;2023-07-29T04:15:35;4.67;;;1.93;;
18159;SDS011;9205;52.032;4.314;2023-07-29T04:18:02;3.93;;;1.80;;
18159;SDS011;9205;52.032;4.314;2023-07-29T04:20:30;4.57;;;2.33;;
18159;SDS011;9205;52.032;4.314;2023-07-29T04:22:59;5.23;;;2.20;;
18159;SDS011;9205;52.032;4.314;2023-07-29T04:25:26;4.73;;;2.03;;
18159;SDS011;9205;52.032;4.314;2023-07-29T04:27:54;6.50;;;2.10;;
18159;SDS011;9205;52.032;4.314;2023-07-29T04:30:22;5.23;;;2.17;;
18159;SDS011;9205;52.032;4.314;2023-07-29T04:32:51;5.10;;;2.23;;
18159;SDS011;9205;52.032;4.314;2023-07-29T04:35:18;4.00;;;2.20;;
18159;SDS011;9205;52.032;4.314;2023-07-29T04:37:45;7.73;;;2.00;;
18159;SDS011;9205;52.032;4.314;2023-07-29T04:40:13;7.10;;;2.20;;
18159;SDS011;9205;52.032;4.314;2023-07-29T04:42:41;4.10;;;2.30;;
18159;SDS011;9205;52.032;4.314;2023-07-29T04:45:08;5.33;;;2.10;;
18159;SDS011;9205;52.032;4.314;2023-07-29T04:47:36;4.17;;;2.10;;
18159;SDS011;9205;52.032;4.314;2023-07-29T04:50:05;2.90;;;2.00;;
18159;SDS011;9205;52.032;4.314;2023-07-29T04:52:35;7.03;;;2.60;;
18159;SDS011;9205;52.032;4.314;2023-07-29T04:55:03;6.77;;;2.30;;
18159;SDS011;9205;52.032;4.314;2023-07-29T04:57:30;5.33;;;2.00;;
18159;SDS011;9205;52.032;4.314;2023-07-29T04:59:58;4.77;;;1.90;;
18159;SDS011;9205;52.032;4.314;2023-07-29T05:02:25;5.23;;;2.43;;
18159;SDS011;9205;52.032;4.314;2023-07-29T05:04:53;4.83;;;2.20;;
18159;SDS011;9205;52.032;4.314;2023-07-29T05:07:22;4.20;;;2.30;;
18159;SDS011;9205;52.032;4.314;2023-07-29T05:09:49;4.63;;;2.17;;
18159;SDS011;9205;52.032;4.314;2023-07-29T05:12:16;3.57;;;2.00;;
18159;SDS011;9205;52.032;4.314;2023-07-29T05:14:44;4.67;;;2.10;;
18159;SDS011;9205;52.032;4.314;2023-07-29T05:17:11;4.77;;;2.40;;
18159;SDS011;9205;52.032;4.314;2023-07-29T05:19:39;6.20;;;2.47;;
18159;SDS011;9205;52.032;4.314;2023-07-29T05:22:07;9.97;;;2.57;;
18159;SDS011;9205;52.032;4.314;2023-07-29T05:24:36;3.20;;;1.80;;
18159;SDS011;9205;52.032;4.314;2023-07-29T05:27:04;5.50;;;2.07;;
18159;SDS011;9205;52.032;4.314;2023-07-29T05:29:33;6.27;;;2.30;;
18159;SDS011;9205;52.032;4.314;2023-07-29T05:32:01;5.17;;;1.90;;
18159;SDS011;9205;52.032;4.314;2023-07-29T05:34:28;2.47;;;1.73;;
18159;SDS011;9205;52.032;4.314;2023-07-29T05:36:56;4.13;;;2.00;;
18159;SDS011;9205;52.032;4.314;2023-07-29T05:39:23;4.57;;;1.93;;
18159;SDS011;9205;52.032;4.314;2023-07-29T05:41:52;7.70;;;2.17;;
18159;SDS011;9205;52.032;4.314;2023-07-29T05:44:19;4.93;;;2.10;;
18159;SDS011;9205;52.032;4.314;2023-07-29T05:46:46;3.97;;;1.57;;
18159;SDS011;9205;52.032;4.314;2023-07-29T05:49:13;2.00;;;1.37;;
18159;SDS011;9205;52.032;4.314;2023-07-29T05:51:41;6.47;;;1.87;;
18159;SDS011;9205;52.032;4.314;2023-07-29T05:54:09;6.90;;;1.90;;
18159;SDS011;9205;52.032;4.314;2023-07-29T05:56:36;7.97;;;1.30;;
18159;SDS011;9205;52.032;4.314;2023-07-29T05:59:05;5.43;;;1.40;;
18159;SDS011;9205;52.032;4.314;2023-07-29T06:01:33;3.97;;;1.30;;
18159;SDS011;9205;52.032;4.314;2023-07-29T06:04:00;1.93;;;1.13;;
18159;SDS011;9205;52.032;4.314;2023-07-29T06:06:28;3.67;;;1.30;;
18159;SDS011;9205;52.032;4.314;2023-07-29T06:08:55;4.80;;;1.30;;
18159;SDS011;9205;52.032;4.314;2023-07-29T06:11:23;5.80;;;1.40;;
18159;SDS011;9205;52.032;4.314;2023-07-29T06:13:50;3.67;;;1.20;;
18159;SDS011;9205;52.032;4.314;2023-07-29T06:16:19;8.53;;;1.40;;
18159;SDS011;9205;52.032;4.314;2023-07-29T06:18:46;7.23;;;1.70;;
18159;SDS011;9205;52.032;4.314;2023-07-29T06:21:13;3.53;;;1.40;;
18159;SDS011;9205;52.032;4.314;2023-07-29T06:23:42;3.33;;;1.40;;
18159;SDS011;9205;52.032;4.314;2023-07-29T06:26:09;4.80;;;1.30;;
18159;SDS011;9205;52.032;4.314;2023-07-29T06:28:37;3.13;;;1.83;;
18159;SDS011;9205;52.032;4.314;2023-07-29T06:31:04;3.67;;;1.30;;
18159;SDS011;9205;52.032;4.314;2023-07-29T06:33:32;4.30;;;1.20;;
18159;SDS011;9205;52.032;4.314;2023-07-29T06:36:00;2.27;;;1.10;;
18159;SDS011;9205;52.032;4.314;2023-07-29T06:38:27;3.50;;;1.40;;
18159;SDS011;9205;52.032;4.314;2023-07-29T06:40:54;4.93;;;1.40;;
18159;SDS011;9205;52.032;4.314;2023-07-29T06:43:21;4.10;;;1.20;;
18159;SDS011;9205;52.032;4.314;2023-07-29T06:45:49;5.13;;;1.30;;
18159;SDS011;9205;52.032;4.314;2023-07-29T06:48:16;5.67;;;1.20;;
18159;SDS011;9205;52.032;4.314;2023-07-29T06:50:46;3.10;;;1.40;;
18159;SDS011;9205;52.032;4.314;2023-07-29T06:53:15;5.00;;;1.40;;
18159;SDS011;9205;52.032;4.314;2023-07-29T06:55:42;5.23;;;1.30;;
18159;SDS011;9205;52.032;4.314;2023-07-29T06:58:10;2.27;;;1.03;;
18159;SDS011;9205;52.032;4.314;2023-07-29T07:00:37;6.50;;;1.33;;
18159;SDS011;9205;52.032;4.314;2023-07-29T07:03:04;4.90;;;1.30;;
18159;SDS011;9205;52.032;4.314;2023-07-29T07:05:32;1.47;;;1.00;;
18159;SDS011;9205;52.032;4.314;2023-07-29T07:08:00;4.37;;;1.30;;
18159;SDS011;9205;52.032;4.314;2023-07-29T07:10:28;3.60;;;1.20;;
18159;SDS011;9205;52.032;4.314;2023-07-29T07:12:56;2.73;;;1.40;;
18159;SDS011;9205;52.032;4.314;2023-07-29T07:15:23;2.57;;;1.37;;
18159;SDS011;9205;52.032;4.314;2023-07-29T07:17:50;3.23;;;1.30;;
18159;SDS011;9205;52.032;4.314;2023-07-29T07:20:17;1.50;;;1.10;;
18159;SDS011;9205;52.032;4.314;2023-07-29T07:22:45;2.43;;;1.27;;
18159;SDS011;9205;52.032;4.314;2023-07-29T07:25:13;2.20;;;1.30;;
18159;SDS011;9205;52.032;4.314;2023-07-29T07:27:41;3.17;;;1.40;;
18159;SDS011;9205;52.032;4.314;2023-07-29T07:30:08;5.23;;;1.30;;
18159;SDS011;9205;52.032;4.314;2023-07-29T07:32:36;3.53;;;1.50;;
18159;SDS011;9205;52.032;4.314;2023-07-29T07:35:04;5.53;;;1.23;;
18159;SDS011;9205;52.032;4.314;2023-07-29T07:37:31;7.73;;;1.67;;
18159;SDS011;9205;52.032;4.314;2023-07-29T07:39:58;3.90;;;1.30;;
18159;SDS011;9205;52.032;4.314;2023-07-29T07:42:27;2.70;;;1.30;;
18159;SDS011;9205;52.032;4.314;2023-07-29T07:44:54;3.93;;;1.30;;
18159;SDS011;9205;52.032;4.314;2023-07-29T07:47:22;2.00;;;1.30;;
18159;SDS011;9205;52.032;4.314;2023-07-29T07:49:49;2.97;;;1.37;;
18159;SDS011;9205;52.032;4.314;2023-07-29T07:52:16;3.30;;;1.30;;
18159;SDS011;9205;52.032;4.314;2023-07-29T07:54:43;5.87;;;1.57;;
18159;SDS011;9205;52.032;4.314;2023-07-29T07:57:11;9.30;;;2.03;;
18159;SDS011;9205;52.032;4.314;2023-07-29T07:59:39;4.07;;;1.30;;
18159;SDS011;9205;52.032;4.314;2023-07-29T08:02:09;1.90;;;1.03;;
18159;SDS011;9205;52.032;4.314;2023-07-29T08:04:36;4.33;;;1.53;;
18159;SDS011;9205;52.032;4.314;2023-07-29T08:07:04;2.17;;;1.10;;
18159;SDS011;9205;52.032;4.314;2023-07-29T08:09:35;3.00;;;1.30;;
18159;SDS011;9205;52.032;4.314;2023-07-29T08:12:03;3.53;;;1.40;;
18159;SDS011;9205;52.032;4.314;2023-07-29T08:14:31;4.53;;;1.40;;
18159;SDS011;9205;52.032;4.314;2023-07-29T08:17:00;5.83;;;1.60;;
18159;SDS011;9205;52.032;4.314;2023-07-29T08:19:28;4.50;;;1.50;;
18159;SDS011;9205;52.032;4.314;2023-07-29T08:21:55;5.30;;;1.37;;
18159;SDS011;9205;52.032;4.314;2023-07-29T08:24:22;2.00;;;1.10;;
18159;SDS011;9205;52.032;4.314;2023-07-29T08:26:50;4.67;;;1.10;;
18159;SDS011;9205;52.032;4.314;2023-07-29T08:29:17;6.50;;;1.30;;
18159;SDS011;9205;52.032;4.314;2023-07-29T08:31:48;2.20;;;1.13;;
18159;SDS011;9205;52.032;4.314;2023-07-29T08:34:18;4.17;;;1.30;;
18159;SDS011;9205;52.032;4.314;2023-07-29T08:36:45;3.77;;;1.47;;
18159;SDS011;9205;52.032;4.314;2023-07-29T08:39:12;4.60;;;1.30;;
18159;SDS011;9205;52.032;4.314;2023-07-29T08:41:41;5.13;;;1.47;;
18159;SDS011;9205;52.032;4.314;2023-07-29T08:44:18;1.90;;;1.10;;
18159;SDS011;9205;52.032;4.314;2023-07-29T08:46:49;2.57;;;1.13;;
18159;SDS011;9205;52.032;4.314;2023-07-29T08:49:20;4.13;;;1.50;;
18159;SDS011;9205;52.032;4.314;2023-07-29T08:51:49;7.40;;;1.53;;
18159;SDS011;9205;52.032;4.314;2023-07-29T08:54:19;4.17;;;1.30;;
18159;SDS011;9205;52.032;4.314;2023-07-29T08:56:47;2.80;;;1.20;;
18159;SDS011;9205;52.032;4.314;2023-07-29T08:59:15;6.40;;;1.60;;
18159;SDS011;9205;52.032;4.314;2023-07-29T09:01:43;3.90;;;1.60;;
18159;SDS011;9205;52.032;4.314;2023-07-29T09:04:11;2.90;;;1.80;;
18159;SDS011;9205;52.032;4.314;2023-07-29T09:06:40;2.97;;;1.83;;
18159;SDS011;9205;52.032;4.314;2023-07-29T09:09:10;5.17;;;1.87;;
18159;SDS011;9205;52.032;4.314;2023-07-29T09:11:39;5.43;;;1.97;;
18159;SDS011;9205;52.032;4.314;2023-07-29T09:14:06;4.37;;;2.07;;
18159;SDS011;9205;52.032;4.314;2023-07-29T09:16:33;3.53;;;2.03;;
18159;SDS011;9205;52.032;4.314;2023-07-29T09:19:01;2.50;;;1.80;;
18159;SDS011;9205;52.032;4.314;2023-07-29T09:21:31;3.83;;;1.83;;
18159;SDS011;9205;52.032;4.314;2023-07-29T09:24:03;4.03;;;1.90;;
18159;SDS011;9205;52.032;4.314;2023-07-29T09:26:32;5.37;;;2.00;;
18159;SDS011;9205;52.032;4.314;2023-07-29T09:29:00;3.83;;;2.10;;
18159;SDS011;9205;52.032;4.314;2023-07-29T09:31:28;4.47;;;2.17;;
18159;SDS011;9205;52.032;4.314;2023-07-29T09:33:56;2.70;;;1.70;;
18159;SDS011;9205;52.032;4.314;2023-07-29T09:36:24;4.37;;;2.00;;
18159;SDS011;9205;52.032;4.314;2023-07-29T09:38:53;5.43;;;2.10;;
18159;SDS011;9205;52.032;4.314;2023-07-29T09:41:23;3.97;;;1.77;;
18159;SDS011;9205;52.032;4.314;2023-07-29T09:43:55;3.90;;;1.60;;
18159;SDS011;9205;52.032;4.314;2023-07-29T09:46:24;2.50;;;1.60;;
18159;SDS011;9205;52.032;4.314;2023-07-29T09:48:59;3.20;;;1.70;;
18159;SDS011;9205;52.032;4.314;2023-07-29T09:51:28;2.07;;;1.37;;
18159;SDS011;9205;52.032;4.314;2023-07-29T09:53:55;1.67;;;1.20;;
18159;SDS011;9205;52.032;4.314;2023-07-29T09:56:25;3.27;;;1.60;;
18159;SDS011;9205;52.032;4.314;2023-07-29T09:58:55;1.40;;;1.30;;
18159;SDS011;9205;52.032;4.314;2023-07-29T10:01:23;2.47;;;1.23;;
18159;SDS011;9205;52.032;4.314;2023-07-29T10:03:50;1.83;;;1.00;;
18159;SDS011;9205;52.032;4.314;2023-07-29T10:06:21;1.97;;;1.10;;
18159;SDS011;9205;52.032;4.314;2023-07-29T10:08:49;2.27;;;1.20;;
18159;SDS011;9205;52.032;4.314;2023-07-29T10:11:18;1.30;;;0.90;;
18159;SDS011;9205;52.032;4.314;2023-07-29T10:13:51;1.20;;;1.07;;
18159;SDS011;9205;52.032;4.314;2023-07-29T10:16:19;1.07;;;0.80;;
18159;SDS011;9205;52.032;4.314;2023-07-29T10:18:49;1.13;;;0.83;;
18159;SDS011;9205;52.032;4.314;2023-07-29T10:21:18;1.60;;;0.90;;
18159;SDS011;9205;52.032;4.314;2023-07-29T10:23:49;3.53;;;0.83;;
18159;SDS011;9205;52.032;4.314;2023-07-29T10:26:25;7.23;;;1.00;;
18159;SDS011;9205;52.032;4.314;2023-07-29T10:28:57;1.73;;;0.93;;
18159;SDS011;9205;52.032;4.314;2023-07-29T10:31:30;1.20;;;0.90;;
18159;SDS011;9205;52.032;4.314;2023-07-29T10:34:00;3.43;;;0.90;;
18159;SDS011;9205;52.032;4.314;2023-07-29T10:36:28;2.10;;;0.90;;
18159;SDS011;9205;52.032;4.314;2023-07-29T10:38:55;2.67;;;0.90;;
18159;SDS011;9205;52.032;4.314;2023-07-29T10:41:23;1.70;;;0.80;;
18159;SDS011;9205;52.032;4.314;2023-07-29T10:43:50;2.77;;;0.97;;
18159;SDS011;9205;52.032;4.314;2023-07-29T10:46:19;0.90;;;0.90;;
18159;SDS011;9205;52.032;4.314;2023-07-29T10:48:54;3.90;;;0.93;;
18159;SDS011;9205;52.032;4.314;2023-07-29T10:51:24;2.50;;;0.90;;
18159;SDS011;9205;52.032;4.314;2023-07-29T10:53:55;2.37;;;1.03;;
18159;SDS011;9205;52.032;4.314;2023-07-29T10:56:28;1.83;;;1.00;;
18159;SDS011;9205;52.032;4.314;2023-07-29T10:58:58;1.77;;;1.17;;
18159;SDS011;9205;52.032;4.314;2023-07-29T11:01:51;2.63;;;1.40;;
18159;SDS011;9205;52.032;4.314;2023-07-29T11:04:25;2.87;;;1.23;;
18159;SDS011;9205;52.032;4.314;2023-07-29T11:09:55;4.87;;;1.80;;
18159;SDS011;9205;52.032;4.314;2023-07-29T11:12:35;2.87;;;1.63;;
18159;SDS011;9205;52.032;4.314;2023-07-29T11:15:07;2.57;;;1.80;;
18159;SDS011;9205;52.032;4.314;2023-07-29T11:17:48;2.53;;;1.40;;
18159;SDS011;9205;52.032;4.314;2023-07-29T11:20:18;2.97;;;1.30;;
18159;SDS011;9205;52.032;4.314;2023-07-29T11:22:47;3.63;;;1.60;;
18159;SDS011;9205;52.032;4.314;2023-07-29T11:25:15;3.40;;;1.53;;
18159;SDS011;9205;52.032;4.314;2023-07-29T11:27:44;3.67;;;1.80;;
18159;SDS011;9205;52.032;4.314;2023-07-29T11:30:12;2.73;;;1.67;;
18159;SDS011;9205;52.032;4.314;2023-07-29T11:32:41;3.30;;;1.50;;
18159;SDS011;9205;52.032;4.314;2023-07-29T11:35:12;2.17;;;1.10;;
18159;SDS011;9205;52.032;4.314;2023-07-29T11:37:43;2.93;;;1.47;;
18159;SDS011;9205;52.032;4.314;2023-07-29T11:42:53;1.57;;;1.20;;
18159;SDS011;9205;52.032;4.314;2023-07-29T11:45:22;2.73;;;1.50;;
18159;SDS011;9205;52.032;4.314;2023-07-29T11:47:49;1.73;;;1.30;;
18159;SDS011;9205;52.032;4.314;2023-07-29T11:50:18;3.97;;;1.30;;
18159;SDS011;9205;52.032;4.314;2023-07-29T11:52:45;3.57;;;1.40;;
18159;SDS011;9205;52.032;4.314;2023-07-29T11:55:13;4.10;;;1.40;;
18159;SDS011;9205;52.032;4.314;2023-07-29T11:57:42;3.43;;;1.20;;
18159;SDS011;9205;52.032;4.314;2023-07-29T12:00:10;1.27;;;1.03;;
18159;SDS011;9205;52.032;4.314;2023-07-29T12:02:42;2.43;;;1.20;;
18159;SDS011;9205;52.032;4.314;2023-07-29T12:05:11;3.33;;;1.50;;
18159;SDS011;9205;52.032;4.314;2023-07-29T12:07:43;3.07;;;1.10;;
18159;SDS011;9205;52.032;4.314;2023-07-29T12:10:11;1.63;;;1.03;;
18159;SDS011;9205;52.032;4.314;2023-07-29T12:12:40;2.97;;;1.40;;
18159;SDS011;9205;52.032;4.314;2023-07-29T12:15:11;2.17;;;1.17;;
18159;SDS011;9205;52.032;4.314;2023-07-29T12:17:39;1.47;;;1.13;;
18159;SDS011;9205;52.032;4.314;2023-07-29T12:20:08;1.87;;;1.00;;
18159;SDS011;9205;52.032;4.314;2023-07-29T12:22:36;2.77;;;1.10;;
18159;SDS011;9205;52.032;4.314;2023-07-29T12:25:05;2.17;;;1.10;;
18159;SDS011;9205;52.032;4.314;2023-07-29T12:27:34;5.73;;;1.47;;
18159;SDS011;9205;52.032;4.314;2023-07-29T12:30:01;11.50;;;4.87;;
18159;SDS011;9205;52.032;4.314;2023-07-29T12:32:29;7.23;;;4.00;;
18159;SDS011;9205;52.032;4.314;2023-07-29T12:34:57;7.10;;;3.07;;
18159;SDS011;9205;52.032;4.314;2023-07-29T12:37:30;5.43;;;3.00;;
18159;SDS011;9205;52.032;4.314;2023-07-29T12:39:58;2.90;;;1.20;;
18159;SDS011;9205;52.032;4.314;2023-07-29T12:42:27;4.57;;;1.33;;
18159;SDS011;9205;52.032;4.314;2023-07-29T12:44:54;2.10;;;1.00;;
18159;SDS011;9205;52.032;4.314;2023-07-29T12:47:21;1.47;;;1.17;;
18159;SDS011;9205;52.032;4.314;2023-07-29T12:49:49;2.53;;;1.40;;
18159;SDS011;9205;52.032;4.314;2023-07-29T12:52:16;1.63;;;1.10;;
18159;SDS011;9205;52.032;4.314;2023-07-29T12:54:43;2.20;;;1.60;;
18159;SDS011;9205;52.032;4.314;2023-07-29T12:57:10;2.20;;;1.10;;
18159;SDS011;9205;52.032;4.314;2023-07-29T12:59:39;2.47;;;1.33;;
18159;SDS011;9205;52.032;4.314;2023-07-29T13:02:06;3.00;;;1.30;;
18159;SDS011;9205;52.032;4.314;2023-07-29T13:04:34;2.30;;;1.10;;
18159;SDS011;9205;52.032;4.314;2023-07-29T13:07:01;5.23;;;1.50;;
18159;SDS011;9205;52.032;4.314;2023-07-29T13:09:28;1.73;;;1.10;;
18159;SDS011;9205;52.032;4.314;2023-07-29T13:11:55;3.27;;;1.10;;
18159;SDS011;9205;52.032;4.314;2023-07-29T13:14:22;3.73;;;1.20;;
18159;SDS011;9205;52.032;4.314;2023-07-29T13:16:52;3.33;;;1.30;;
18159;SDS011;9205;52.032;4.314;2023-07-29T13:19:20;6.23;;;1.27;;
18159;SDS011;9205;52.032;4.314;2023-07-29T13:21:47;2.53;;;1.33;;
18159;SDS011;9205;52.032;4.314;2023-07-29T13:24:14;1.27;;;1.10;;
18159;SDS011;9205;52.032;4.314;2023-07-29T13:26:41;2.93;;;0.90;;
18159;SDS011;9205;52.032;4.314;2023-07-29T13:29:08;2.33;;;1.20;;
18159;SDS011;9205;52.032;4.314;2023-07-29T13:31:35;2.67;;;1.30;;
18159;SDS011;9205;52.032;4.314;2023-07-29T13:34:04;2.27;;;1.10;;
18159;SDS011;9205;52.032;4.314;2023-07-29T13:36:31;2.20;;;1.17;;
18159;SDS011;9205;52.032;4.314;2023-07-29T13:38:59;2.13;;;1.10;;
18159;SDS011;9205;52.032;4.314;2023-07-29T13:41:26;3.30;;;1.40;;
18159;SDS011;9205;52.032;4.314;2023-07-29T13:43:53;3.15;;;1.25;;
18159;SDS011;9205;52.032;4.314;2023-07-29T13:46:20;2.97;;;1.10;;
18159;SDS011;9205;52.032;4.314;2023-07-29T13:48:48;2.58;;;1.40;;
18159;SDS011;9205;52.032;4.314;2023-07-29T13:51:16;2.13;;;1.20;;
18159;SDS011;9205;52.032;4.314;2023-07-29T13:53:44;2.80;;;1.50;;
18159;SDS011;9205;52.032;4.314;2023-07-29T13:56:11;4.13;;;1.52;;
18159;SDS011;9205;52.032;4.314;2023-07-29T13:58:38;3.65;;;1.20;;
18159;SDS011;9205;52.032;4.314;2023-07-29T14:01:06;4.10;;;1.30;;
18159;SDS011;9205;52.032;4.314;2023-07-29T14:03:33;2.33;;;1.20;;
18159;SDS011;9205;52.032;4.314;2023-07-29T14:06:00;4.97;;;1.65;;
18159;SDS011;9205;52.032;4.314;2023-07-29T14:08:29;3.17;;;1.50;;
18159;SDS011;9205;52.032;4.314;2023-07-29T14:10:56;2.92;;;1.40;;
18159;SDS011;9205;52.032;4.314;2023-07-29T14:13:23;3.05;;;1.10;;
18159;SDS011;9205;52.032;4.314;2023-07-29T14:15:51;1.45;;;1.08;;
18159;SDS011;9205;52.032;4.314;2023-07-29T14:18:18;1.42;;;1.02;;
18159;SDS011;9205;52.032;4.314;2023-07-29T14:20:46;2.28;;;1.20;;
18159;SDS011;9205;52.032;4.314;2023-07-29T14:23:13;5.18;;;1.50;;
18159;SDS011;9205;52.032;4.314;2023-07-29T14:25:41;5.30;;;1.60;;
18159;SDS011;9205;52.032;4.314;2023-07-29T14:28:09;2.92;;;1.33;;
18159;SDS011;9205;52.032;4.314;2023-07-29T14:30:36;3.10;;;1.42;;
18159;SDS011;9205;52.032;4.314;2023-07-29T14:33:03;1.95;;;1.00;;
18159;SDS011;9205;52.032;4.314;2023-07-29T14:35:31;2.67;;;1.55;;
18159;SDS011;9205;52.032;4.314;2023-07-29T14:37:59;2.60;;;1.10;;
18159;SDS011;9205;52.032;4.314;2023-07-29T14:40:26;2.03;;;1.30;;
18159;SDS011;9205;52.032;4.314;2023-07-29T14:42:55;3.13;;;1.38;;
18159;SDS011;9205;52.032;4.314;2023-07-29T14:45:22;2.33;;;1.17;;
18159;SDS011;9205;52.032;4.314;2023-07-29T14:47:49;2.20;;;1.27;;
18159;SDS011;9205;52.032;4.314;2023-07-29T14:50:16;5.60;;;1.80;;
18159;SDS011;9205;52.032;4.314;2023-07-29T14:52:44;4.05;;;1.95;;
18159;SDS011;9205;52.032;4.314;2023-07-29T14:55:11;4.25;;;1.67;;
18159;SDS011;9205;52.032;4.314;2023-07-29T14:57:38;5.15;;;1.60;;
18159;SDS011;9205;52.032;4.314;2023-07-29T15:00:08;2.22;;;1.02;;
18159;SDS011;9205;52.032;4.314;2023-07-29T15:02:37;2.53;;;1.85;;
18159;SDS011;9205;52.032;4.314;2023-07-29T15:05:05;1.98;;;1.10;;
18159;SDS011;9205;52.032;4.314;2023-07-29T15:07:33;2.97;;;1.10;;
18159;SDS011;9205;52.032;4.314;2023-07-29T15:10:00;2.83;;;1.05;;
18159;SDS011;9205;52.032;4.314;2023-07-29T15:12:27;2.65;;;1.30;;
18159;SDS011;9205;52.032;4.314;2023-07-29T15:14:55;3.80;;;1.30;;